sensor_id;sensor_type;location;lat;lon;timestamp;pressure;altitude;pressure_sealevel;temperature;humidity
25526;BME280;13424;48.424;11.258;2023-02-24T00:01:39;95111.22;;;10.92;77.80
25526;BME280;13424;48.424;11.258;2023-02-24T00:04:12;95110.66;;;10.90;77.87
25526;BME280;13424;48.424;11.258;2023-02-24T00:06:41;95106.72;;;10.98;77.86
25526;BME280;13424;48.424;11.258;2023-02-24T00:09:20;95102.16;;;10.93;78.01
25526;BME280;13424;48.424;11.258;2023-02-24T00:12:05;95098.34;;;10.84;78.40
25526;BME280;13424;48.424;11.258;2023-02-24T00:14:35;95095.97;;;10.87;78.53
25526;BME280;13424;48.424;11.258;2023-02-24T00:17:02;95094.44;;;10.97;78.29
25526;BME280;13424;48.424;11.258;2023-02-24T00:19:30;95091.75;;;10.92;78.55
25526;BME280;13424;48.424;11.258;2023-02-24T00:22:08;95088.34;;;9.98;83.03
25526;BME280;13424;48.424;11.258;2023-02-24T00:24:34;95095.16;;;10.87;79.30
25526;BME280;13424;48.424;11.258;2023-02-24T00:30:47;95082.78;;;11.03;78.14
25526;BME280;13424;48.424;11.258;2023-02-24T00:33:13;95077.16;;;10.99;78.25
25526;BME280;13424;48.424;11.258;2023-02-24T00:35:39;95079.56;;;11.01;78.08
25526;BME280;13424;48.424;11.258;2023-02-24T00:38:04;95078.63;;;10.85;78.99
25526;BME280;13424;48.424;11.258;2023-02-24T00:40:30;95079.00;;;10.67;80.09
25526;BME280;13424;48.424;11.258;2023-02-24T00:42:58;95078.22;;;11.03;78.08
25526;BME280;13424;48.424;11.258;2023-02-24T00:45:24;95070.97;;;10.94;78.79
25526;BME280;13424;48.424;11.258;2023-02-24T00:47:49;95072.03;;;10.93;78.51
25526;BME280;13424;48.424;11.258;2023-02-24T00:50:16;95069.75;;;10.79;78.93
25526;BME280;13424;48.424;11.258;2023-02-24T00:52:41;95069.69;;;10.74;79.42
25526;BME280;13424;48.424;11.258;2023-02-24T00:55:08;95059.63;;;10.81;79.14
25526;BME280;13424;48.424;11.258;2023-02-24T00:57:40;95060.81;;;10.90;78.93
25526;BME280;13424;48.424;11.258;2023-02-24T01:00:07;95050.94;;;10.91;78.76
25526;BME280;13424;48.424;11.258;2023-02-24T01:02:38;95061.41;;;11.03;77.96
25526;BME280;13424;48.424;11.258;2023-02-24T01:05:04;95054.16;;;10.93;78.26
25526;BME280;13424;48.424;11.258;2023-02-24T01:07:40;95051.28;;;10.73;79.70
25526;BME280;13424;48.424;11.258;2023-02-24T01:10:06;95045.47;;;11.13;77.69
25526;BME280;13424;48.424;11.258;2023-02-24T01:12:36;95045.78;;;11.16;77.01
25526;BME280;13424;48.424;11.258;2023-02-24T01:15:16;95045.25;;;11.14;76.87
25526;BME280;13424;48.424;11.258;2023-02-24T01:17:43;95037.34;;;10.93;77.28
25526;BME280;13424;48.424;11.258;2023-02-24T01:20:10;95038.50;;;10.21;80.71
25526;BME280;13424;48.424;11.258;2023-02-24T01:22:48;95044.72;;;10.53;79.49
25526;BME280;13424;48.424;11.258;2023-02-24T01:25:15;95037.13;;;10.67;78.48
25526;BME280;13424;48.424;11.258;2023-02-24T01:27:42;95040.34;;;10.69;77.68
25526;BME280;13424;48.424;11.258;2023-02-24T01:30:09;95040.50;;;10.89;77.38
25526;BME280;13424;48.424;11.258;2023-02-24T01:32:43;95032.72;;;10.83;77.44
25526;BME280;13424;48.424;11.258;2023-02-24T01:35:11;95026.13;;;10.90;77.20
25526;BME280;13424;48.424;11.258;2023-02-24T01:37:37;95027.03;;;10.74;77.18
25526;BME280;13424;48.424;11.258;2023-02-24T01:40:07;95025.38;;;10.36;78.79
25526;BME280;13424;48.424;11.258;2023-02-24T01:42:45;95023.31;;;10.43;78.76
25526;BME280;13424;48.424;11.258;2023-02-24T01:45:18;95020.53;;;10.60;77.85
25526;BME280;13424;48.424;11.258;2023-02-24T01:47:45;95014.50;;;10.43;78.48
25526;BME280;13424;48.424;11.258;2023-02-24T01:50:12;95019.78;;;10.16;79.46
25526;BME280;13424;48.424;11.258;2023-02-24T01:52:41;95018.47;;;10.18;79.30
25526;BME280;13424;48.424;11.258;2023-02-24T01:55:22;95022.84;;;10.24;79.59
25526;BME280;13424;48.424;11.258;2023-02-24T01:57:50;95010.31;;;10.25;79.24
25526;BME280;13424;48.424;11.258;2023-02-24T02:00:17;95016.00;;;10.33;78.81
25526;BME280;13424;48.424;11.258;2023-02-24T02:03:35;95012.44;;;10.23;78.91
25526;BME280;13424;48.424;11.258;2023-02-24T02:06:12;95011.72;;;10.32;78.22
25526;BME280;13424;48.424;11.258;2023-02-24T02:08:41;95004.88;;;9.93;78.92
25526;BME280;13424;48.424;11.258;2023-02-24T02:11:13;94995.81;;;9.94;78.99
25526;BME280;13424;48.424;11.258;2023-02-24T02:13:42;94995.38;;;10.02;77.97
25526;BME280;13424;48.424;11.258;2023-02-24T02:16:24;94993.13;;;10.16;77.96
25526;BME280;13424;48.424;11.258;2023-02-24T02:22:14;94992.84;;;10.12;77.76
25526;BME280;13424;48.424;11.258;2023-02-24T02:25:07;94995.34;;;9.97;78.96
25526;BME280;13424;48.424;11.258;2023-02-24T02:28:20;94994.47;;;9.91;80.50
25526;BME280;13424;48.424;11.258;2023-02-24T02:37:31;94985.91;;;10.11;79.54
25526;BME280;13424;48.424;11.258;2023-02-24T02:40:11;94986.41;;;10.08;79.84
25526;BME280;13424;48.424;11.258;2023-02-24T02:45:48;94989.25;;;10.23;78.96
25526;BME280;13424;48.424;11.258;2023-02-24T02:48:33;94989.34;;;10.33;78.03
25526;BME280;13424;48.424;11.258;2023-02-24T02:51:11;94982.28;;;9.95;79.34
25526;BME280;13424;48.424;11.258;2023-02-24T02:54:03;94980.25;;;9.81;81.11
25526;BME280;13424;48.424;11.258;2023-02-24T02:56:41;94975.13;;;10.01;80.17
25526;BME280;13424;48.424;11.258;2023-02-24T02:59:09;94968.56;;;9.87;79.93
25526;BME280;13424;48.424;11.258;2023-02-24T03:01:38;94977.25;;;9.99;79.06
25526;BME280;13424;48.424;11.258;2023-02-24T03:04:08;94986.09;;;10.04;80.33
25526;BME280;13424;48.424;11.258;2023-02-24T03:06:46;94974.03;;;9.97;80.51
25526;BME280;13424;48.424;11.258;2023-02-24T03:09:25;94979.53;;;10.12;80.92
25526;BME280;13424;48.424;11.258;2023-02-24T03:12:00;94974.75;;;10.14;79.95
25526;BME280;13424;48.424;11.258;2023-02-24T03:14:32;94977.13;;;10.38;78.84
25526;BME280;13424;48.424;11.258;2023-02-24T03:16:59;94967.78;;;10.35;78.30
25526;BME280;13424;48.424;11.258;2023-02-24T03:19:34;94975.72;;;10.08;79.23
25526;BME280;13424;48.424;11.258;2023-02-24T03:22:26;94971.53;;;10.12;79.18
25526;BME280;13424;48.424;11.258;2023-02-24T03:24:54;94966.03;;;9.97;79.09
25526;BME280;13424;48.424;11.258;2023-02-24T03:27:48;94958.94;;;9.81;80.01
25526;BME280;13424;48.424;11.258;2023-02-24T03:30:24;94954.59;;;9.74;78.94
25526;BME280;13424;48.424;11.258;2023-02-24T03:33:17;94964.72;;;9.50;78.59
25526;BME280;13424;48.424;11.258;2023-02-24T03:35:44;94963.53;;;9.19;81.90
25526;BME280;13424;48.424;11.258;2023-02-24T03:38:11;94970.84;;;9.51;80.88
25526;BME280;13424;48.424;11.258;2023-02-24T03:40:39;94963.38;;;9.31;81.34
25526;BME280;13424;48.424;11.258;2023-02-24T03:43:25;94960.38;;;9.44;81.32
25526;BME280;13424;48.424;11.258;2023-02-24T03:45:54;94958.44;;;9.84;78.23
25526;BME280;13424;48.424;11.258;2023-02-24T03:48:22;94947.59;;;9.90;78.12
25526;BME280;13424;48.424;11.258;2023-02-24T03:50:49;94937.13;;;9.84;77.99
25526;BME280;13424;48.424;11.258;2023-02-24T03:53:44;94946.78;;;9.24;80.15
25526;BME280;13424;48.424;11.258;2023-02-24T03:59:35;94949.50;;;9.07;79.07
25526;BME280;13424;48.424;11.258;2023-02-24T04:02:15;94936.59;;;9.38;77.70
25526;BME280;13424;48.424;11.258;2023-02-24T04:05:18;94943.13;;;9.25;79.32
25526;BME280;13424;48.424;11.258;2023-02-24T04:08:02;94933.63;;;9.34;79.17
25526;BME280;13424;48.424;11.258;2023-02-24T04:10:57;94939.16;;;9.28;79.61
25526;BME280;13424;48.424;11.258;2023-02-24T04:13:48;94943.16;;;9.52;78.60
25526;BME280;13424;48.424;11.258;2023-02-24T04:16:55;94937.09;;;9.13;79.71
25526;BME280;13424;48.424;11.258;2023-02-24T04:19:27;94935.94;;;9.26;79.71
25526;BME280;13424;48.424;11.258;2023-02-24T04:21:54;94935.94;;;9.26;80.02
25526;BME280;13424;48.424;11.258;2023-02-24T04:24:27;94934.88;;;9.48;78.72
25526;BME280;13424;48.424;11.258;2023-02-24T04:26:57;94936.22;;;9.51;78.28
25526;BME280;13424;48.424;11.258;2023-02-24T04:29:27;94928.59;;;8.94;79.11
25526;BME280;13424;48.424;11.258;2023-02-24T04:32:07;94933.94;;;8.77;78.23
25526;BME280;13424;48.424;11.258;2023-02-24T04:34:35;94932.13;;;9.21;78.00
25526;BME280;13424;48.424;11.258;2023-02-24T04:37:03;94926.19;;;9.14;79.17
25526;BME280;13424;48.424;11.258;2023-02-24T04:39:30;94932.34;;;8.98;80.98
25526;BME280;13424;48.424;11.258;2023-02-24T04:41:58;94932.50;;;9.52;78.95
25526;BME280;13424;48.424;11.258;2023-02-24T04:44:26;94930.09;;;9.72;78.43
25526;BME280;13424;48.424;11.258;2023-02-24T04:46:52;94922.22;;;9.61;78.90
25526;BME280;13424;48.424;11.258;2023-02-24T04:49:19;94919.03;;;9.37;80.12
25526;BME280;13424;48.424;11.258;2023-02-24T04:52:22;94915.50;;;9.09;81.01
25526;BME280;13424;48.424;11.258;2023-02-24T04:54:47;94915.50;;;9.09;81.08
25526;BME280;13424;48.424;11.258;2023-02-24T04:57:13;94901.19;;;9.59;78.83
25526;BME280;13424;48.424;11.258;2023-02-24T04:59:39;94899.59;;;9.14;79.98
25526;BME280;13424;48.424;11.258;2023-02-24T05:02:05;94906.09;;;9.02;80.56
25526;BME280;13424;48.424;11.258;2023-02-24T05:04:34;94902.56;;;8.96;81.00
25526;BME280;13424;48.424;11.258;2023-02-24T05:07:03;94893.22;;;9.15;79.78
25526;BME280;13424;48.424;11.258;2023-02-24T05:09:29;94894.78;;;9.33;78.97
25526;BME280;13424;48.424;11.258;2023-02-24T05:11:56;94878.88;;;9.16;78.91
25526;BME280;13424;48.424;11.258;2023-02-24T05:14:22;94874.22;;;9.29;77.95
25526;BME280;13424;48.424;11.258;2023-02-24T05:16:49;94878.72;;;9.06;78.40
25526;BME280;13424;48.424;11.258;2023-02-24T05:23:30;94869.44;;;8.48;80.19
25526;BME280;13424;48.424;11.258;2023-02-24T05:25:57;94868.53;;;8.59;78.38
25526;BME280;13424;48.424;11.258;2023-02-24T05:28:24;94879.66;;;8.56;78.34
25526;BME280;13424;48.424;11.258;2023-02-24T05:30:51;94865.50;;;8.51;78.41
25526;BME280;13424;48.424;11.258;2023-02-24T05:33:19;94865.47;;;8.67;77.77
25526;BME280;13424;48.424;11.258;2023-02-24T05:35:48;94855.03;;;8.44;79.94
25526;BME280;13424;48.424;11.258;2023-02-24T05:38:16;94861.94;;;8.45;80.17
25526;BME280;13424;48.424;11.258;2023-02-24T05:40:45;94858.19;;;8.80;78.75
25526;BME280;13424;48.424;11.258;2023-02-24T05:43:14;94848.19;;;8.87;77.96
25526;BME280;13424;48.424;11.258;2023-02-24T05:45:45;94841.75;;;8.83;78.29
25526;BME280;13424;48.424;11.258;2023-02-24T05:48:12;94853.72;;;8.63;79.11
25526;BME280;13424;48.424;11.258;2023-02-24T05:50:49;94851.44;;;8.72;79.58
25526;BME280;13424;48.424;11.258;2023-02-24T05:53:16;94860.16;;;8.67;79.77
25526;BME280;13424;48.424;11.258;2023-02-24T05:55:43;94864.44;;;8.52;80.05
25526;BME280;13424;48.424;11.258;2023-02-24T05:58:09;94857.56;;;8.73;79.28
25526;BME280;13424;48.424;11.258;2023-02-24T06:00:35;94859.66;;;8.71;79.88
25526;BME280;13424;48.424;11.258;2023-02-24T06:03:04;94851.53;;;8.77;80.20
25526;BME280;13424;48.424;11.258;2023-02-24T06:05:42;94858.44;;;9.00;79.62
25526;BME280;13424;48.424;11.258;2023-02-24T06:08:08;94858.88;;;8.70;80.96
25526;BME280;13424;48.424;11.258;2023-02-24T06:14:11;94861.34;;;8.99;80.16
25526;BME280;13424;48.424;11.258;2023-02-24T06:16:39;94856.28;;;8.97;80.33
25526;BME280;13424;48.424;11.258;2023-02-24T06:19:07;94860.22;;;8.73;81.46
25526;BME280;13424;48.424;11.258;2023-02-24T06:21:39;94868.19;;;8.73;81.26
25526;BME280;13424;48.424;11.258;2023-02-24T06:24:13;94860.59;;;8.81;80.61
25526;BME280;13424;48.424;11.258;2023-02-24T06:26:42;94864.09;;;9.04;79.74
25526;BME280;13424;48.424;11.258;2023-02-24T06:29:13;94861.91;;;8.79;81.05
25526;BME280;13424;48.424;11.258;2023-02-24T06:31:40;94861.50;;;9.09;79.83
25526;BME280;13424;48.424;11.258;2023-02-24T06:34:09;94859.25;;;9.22;79.27
25526;BME280;13424;48.424;11.258;2023-02-24T06:36:36;94850.81;;;9.31;79.03
25526;BME280;13424;48.424;11.258;2023-02-24T06:39:04;94855.34;;;9.08;79.34
25526;BME280;13424;48.424;11.258;2023-02-24T06:41:36;94860.22;;;9.38;78.69
25526;BME280;13424;48.424;11.258;2023-02-24T06:44:02;94856.91;;;9.53;78.15
25526;BME280;13424;48.424;11.258;2023-02-24T06:46:28;94848.13;;;9.52;77.91
25526;BME280;13424;48.424;11.258;2023-02-24T06:48:54;94846.81;;;9.55;77.90
25526;BME280;13424;48.424;11.258;2023-02-24T06:51:20;94836.75;;;9.57;77.51
25526;BME280;13424;48.424;11.258;2023-02-24T06:53:47;94837.94;;;9.71;77.17
25526;BME280;13424;48.424;11.258;2023-02-24T06:56:15;94835.22;;;9.66;78.03
25526;BME280;13424;48.424;11.258;2023-02-24T06:58:54;94829.00;;;9.83;77.00
25526;BME280;13424;48.424;11.258;2023-02-24T07:01:24;94827.53;;;9.70;78.05
25526;BME280;13424;48.424;11.258;2023-02-24T07:03:53;94826.59;;;9.54;78.97
25526;BME280;13424;48.424;11.258;2023-02-24T07:06:45;94819.84;;;10.05;77.11
25526;BME280;13424;48.424;11.258;2023-02-24T07:09:16;94820.47;;;10.18;76.23
25526;BME280;13424;48.424;11.258;2023-02-24T07:11:45;94827.97;;;9.89;77.94
25526;BME280;13424;48.424;11.258;2023-02-24T07:14:13;94822.25;;;10.07;77.20
25526;BME280;13424;48.424;11.258;2023-02-24T07:16:40;94825.41;;;9.99;78.02
25526;BME280;13424;48.424;11.258;2023-02-24T07:19:14;94819.97;;;10.21;77.74
25526;BME280;13424;48.424;11.258;2023-02-24T07:21:42;94825.78;;;9.81;79.00
25526;BME280;13424;48.424;11.258;2023-02-24T07:24:13;94822.78;;;9.72;79.90
25526;BME280;13424;48.424;11.258;2023-02-24T07:26:55;94824.50;;;10.20;77.86
25526;BME280;13424;48.424;11.258;2023-02-24T07:29:23;94827.16;;;10.20;77.98
25526;BME280;13424;48.424;11.258;2023-02-24T07:31:50;94828.53;;;9.91;79.00
25526;BME280;13424;48.424;11.258;2023-02-24T07:34:22;94826.75;;;10.01;78.37
25526;BME280;13424;48.424;11.258;2023-02-24T07:36:52;94819.13;;;10.15;77.93
25526;BME280;13424;48.424;11.258;2023-02-24T07:39:20;94815.38;;;10.11;77.74
25526;BME280;13424;48.424;11.258;2023-02-24T07:41:52;94821.28;;;10.18;77.66
25526;BME280;13424;48.424;11.258;2023-02-24T07:44:22;94812.75;;;10.16;77.15
25526;BME280;13424;48.424;11.258;2023-02-24T07:46:49;94814.00;;;10.03;77.66
25526;BME280;13424;48.424;11.258;2023-02-24T07:49:21;94812.03;;;10.26;77.38
25526;BME280;13424;48.424;11.258;2023-02-24T07:51:49;94806.53;;;10.38;77.20
25526;BME280;13424;48.424;11.258;2023-02-24T07:54:21;94808.97;;;10.49;76.87
25526;BME280;13424;48.424;11.258;2023-02-24T07:56:48;94807.16;;;10.18;78.26
25526;BME280;13424;48.424;11.258;2023-02-24T07:59:26;94804.94;;;10.42;77.88
25526;BME280;13424;48.424;11.258;2023-02-24T08:01:52;94807.91;;;10.50;77.15
25526;BME280;13424;48.424;11.258;2023-02-24T08:04:28;94806.25;;;10.39;77.76
25526;BME280;13424;48.424;11.258;2023-02-24T08:06:55;94810.25;;;10.04;78.63
25526;BME280;13424;48.424;11.258;2023-02-24T08:09:27;94816.09;;;10.01;78.92
25526;BME280;13424;48.424;11.258;2023-02-24T08:12:17;94807.38;;;10.11;78.80
25526;BME280;13424;48.424;11.258;2023-02-24T08:14:47;94799.41;;;10.11;78.29
25526;BME280;13424;48.424;11.258;2023-02-24T08:17:24;94790.56;;;10.43;77.86
25526;BME280;13424;48.424;11.258;2023-02-24T08:19:53;94794.94;;;10.64;76.93
25526;BME280;13424;48.424;11.258;2023-02-24T08:22:45;94795.38;;;10.46;77.34
25526;BME280;13424;48.424;11.258;2023-02-24T08:25:27;94793.06;;;10.65;76.98
25526;BME280;13424;48.424;11.258;2023-02-24T08:28:06;94791.28;;;10.75;77.14
25526;BME280;13424;48.424;11.258;2023-02-24T08:30:40;94793.38;;;10.68;77.06
25526;BME280;13424;48.424;11.258;2023-02-24T08:33:13;94790.09;;;10.56;77.29
25526;BME280;13424;48.424;11.258;2023-02-24T08:39:24;94787.72;;;10.59;77.89
25526;BME280;13424;48.424;11.258;2023-02-24T08:41:57;94782.88;;;10.51;77.92
25526;BME280;13424;48.424;11.258;2023-02-24T08:44:24;94787.19;;;10.20;79.20
25526;BME280;13424;48.424;11.258;2023-02-24T08:46:53;94783.63;;;10.04;80.68
25526;BME280;13424;48.424;11.258;2023-02-24T08:49:21;94776.34;;;10.27;79.64
25526;BME280;13424;48.424;11.258;2023-02-24T08:51:50;94768.28;;;10.22;79.65
25526;BME280;13424;48.424;11.258;2023-02-24T08:54:22;94769.34;;;10.63;78.45
25526;BME280;13424;48.424;11.258;2023-02-24T08:57:11;94766.19;;;10.71;78.62
25526;BME280;13424;48.424;11.258;2023-02-24T08:59:39;94767.84;;;10.82;78.39
25526;BME280;13424;48.424;11.258;2023-02-24T09:02:18;94764.94;;;10.94;77.84
25526;BME280;13424;48.424;11.258;2023-02-24T09:04:53;94768.66;;;10.88;78.34
25526;BME280;13424;48.424;11.258;2023-02-24T09:07:29;94760.13;;;10.91;77.99
25526;BME280;13424;48.424;11.258;2023-02-24T09:10:05;94758.25;;;10.97;77.33
25526;BME280;13424;48.424;11.258;2023-02-24T09:12:39;94754.06;;;11.16;76.97
25526;BME280;13424;48.424;11.258;2023-02-24T09:15:08;94756.22;;;11.29;76.64
25526;BME280;13424;48.424;11.258;2023-02-24T09:17:34;94748.22;;;11.44;76.76
25526;BME280;13424;48.424;11.258;2023-02-24T09:20:17;94742.09;;;11.49;76.97
25526;BME280;13424;48.424;11.258;2023-02-24T09:22:56;94749.88;;;11.71;75.95
25526;BME280;13424;48.424;11.258;2023-02-24T09:25:29;94750.44;;;11.83;75.51
25526;BME280;13424;48.424;11.258;2023-02-24T09:28:15;94749.38;;;11.89;75.46
25526;BME280;13424;48.424;11.258;2023-02-24T09:30:44;94749.34;;;11.79;75.44
25526;BME280;13424;48.424;11.258;2023-02-24T09:33:33;94752.00;;;11.64;76.09
25526;BME280;13424;48.424;11.258;2023-02-24T09:36:12;94745.31;;;11.77;76.06
25526;BME280;13424;48.424;11.258;2023-02-24T09:38:50;94737.06;;;11.73;76.57
25526;BME280;13424;48.424;11.258;2023-02-24T09:41:48;94730.84;;;12.39;75.21
25526;BME280;13424;48.424;11.258;2023-02-24T09:47:16;94717.78;;;12.22;75.28
25526;BME280;13424;48.424;11.258;2023-02-24T09:49:51;94725.81;;;12.22;74.99
25526;BME280;13424;48.424;11.258;2023-02-24T09:52:28;94717.44;;;12.54;74.19
25526;BME280;13424;48.424;11.258;2023-02-24T09:56:19;94713.41;;;12.62;74.28
25526;BME280;13424;48.424;11.258;2023-02-24T10:02:08;94711.91;;;12.25;75.77
25526;BME280;13424;48.424;11.258;2023-02-24T10:04:59;94708.44;;;12.24;75.25
25526;BME280;13424;48.424;11.258;2023-02-24T10:07:39;94701.41;;;12.49;75.10
25526;BME280;13424;48.424;11.258;2023-02-24T10:10:20;94692.44;;;12.79;74.72
25526;BME280;13424;48.424;11.258;2023-02-24T10:13:26;94694.59;;;12.77;74.32
25526;BME280;13424;48.424;11.258;2023-02-24T10:15:59;94687.66;;;12.81;74.13
25526;BME280;13424;48.424;11.258;2023-02-24T10:21:42;94679.41;;;13.17;73.16
25526;BME280;13424;48.424;11.258;2023-02-24T10:24:47;94677.84;;;13.10;74.13
25526;BME280;13424;48.424;11.258;2023-02-24T10:27:32;94677.31;;;13.08;74.25
25526;BME280;13424;48.424;11.258;2023-02-24T10:30:32;94676.16;;;13.30;73.13
25526;BME280;13424;48.424;11.258;2023-02-24T10:33:19;94672.75;;;13.14;73.36
25526;BME280;13424;48.424;11.258;2023-02-24T10:35:50;94671.50;;;13.40;73.12
25526;BME280;13424;48.424;11.258;2023-02-24T10:38:19;94669.44;;;13.32;73.41
25526;BME280;13424;48.424;11.258;2023-02-24T10:40:49;94671.16;;;13.52;72.77
25526;BME280;13424;48.424;11.258;2023-02-24T10:43:25;94670.41;;;13.47;72.54
25526;BME280;13424;48.424;11.258;2023-02-24T10:45:57;94667.22;;;13.74;72.14
25526;BME280;13424;48.424;11.258;2023-02-24T10:48:49;94661.91;;;13.34;72.58
25526;BME280;13424;48.424;11.258;2023-02-24T10:51:18;94657.72;;;13.86;71.62
25526;BME280;13424;48.424;11.258;2023-02-24T10:53:48;94651.84;;;13.55;72.65
25526;BME280;13424;48.424;11.258;2023-02-24T10:56:33;94654.38;;;13.76;71.69
25526;BME280;13424;48.424;11.258;2023-02-24T10:59:13;94653.16;;;13.58;72.83
25526;BME280;13424;48.424;11.258;2023-02-24T11:02:17;94640.81;;;13.62;71.21
25526;BME280;13424;48.424;11.258;2023-02-24T11:04:59;94636.16;;;13.73;71.35
25526;BME280;13424;48.424;11.258;2023-02-24T11:07:25;94634.81;;;13.41;72.51
25526;BME280;13424;48.424;11.258;2023-02-24T11:10:17;94639.38;;;13.75;71.92
25526;BME280;13424;48.424;11.258;2023-02-24T11:12:54;94641.69;;;13.52;71.64
25526;BME280;13424;48.424;11.258;2023-02-24T11:15:57;94633.56;;;13.62;71.40
25526;BME280;13424;48.424;11.258;2023-02-24T11:18:46;94629.84;;;13.58;71.52
25526;BME280;13424;48.424;11.258;2023-02-24T11:21:14;94611.88;;;13.88;70.36
25526;BME280;13424;48.424;11.258;2023-02-24T11:24:01;94608.94;;;14.13;70.38
25526;BME280;13424;48.424;11.258;2023-02-24T11:26:39;94599.28;;;14.12;71.18
25526;BME280;13424;48.424;11.258;2023-02-24T11:37:42;94591.75;;;15.00;67.39
25526;BME280;13424;48.424;11.258;2023-02-24T11:40:18;94576.97;;;14.41;68.58
25526;BME280;13424;48.424;11.258;2023-02-24T11:48:21;94566.88;;;14.75;66.91
25526;BME280;13424;48.424;11.258;2023-02-24T11:51:18;94560.59;;;14.42;68.28
25526;BME280;13424;48.424;11.258;2023-02-24T11:56:37;94539.75;;;14.96;68.69
25526;BME280;13424;48.424;11.258;2023-02-24T11:59:22;94539.50;;;14.92;68.34
25526;BME280;13424;48.424;11.258;2023-02-24T12:05:19;94536.69;;;15.35;66.53
25526;BME280;13424;48.424;11.258;2023-02-24T12:08:00;94523.28;;;15.16;66.14
25526;BME280;13424;48.424;11.258;2023-02-24T12:10:42;94515.66;;;14.91;68.85
25526;BME280;13424;48.424;11.258;2023-02-24T12:13:47;94511.41;;;14.09;69.58
25526;BME280;13424;48.424;11.258;2023-02-24T12:16:55;94508.47;;;14.67;68.41
25526;BME280;13424;48.424;11.258;2023-02-24T12:23:22;94505.72;;;14.72;68.35
25526;BME280;13424;48.424;11.258;2023-02-24T12:26:33;94502.63;;;14.46;68.96
25526;BME280;13424;48.424;11.258;2023-02-24T12:40:40;94474.56;;;13.96;70.09
25526;BME280;13424;48.424;11.258;2023-02-24T12:43:29;94478.22;;;13.57;71.77
25526;BME280;13424;48.424;11.258;2023-02-24T12:55:17;94466.72;;;14.61;68.57
25526;BME280;13424;48.424;11.258;2023-02-24T12:57:57;94463.13;;;13.66;69.73
25526;BME280;13424;48.424;11.258;2023-02-24T13:03:40;94450.09;;;14.21;69.30
25526;BME280;13424;48.424;11.258;2023-02-24T13:10:50;94446.34;;;14.41;68.43
25526;BME280;13424;48.424;11.258;2023-02-24T13:16:09;94434.88;;;13.55;69.64
25526;BME280;13424;48.424;11.258;2023-02-24T13:18:36;94430.09;;;13.95;70.66
25526;BME280;13424;48.424;11.258;2023-02-24T13:23:41;94414.09;;;13.66;69.82
25526;BME280;13424;48.424;11.258;2023-02-24T13:26:07;94414.50;;;13.97;69.17
25526;BME280;13424;48.424;11.258;2023-02-24T13:28:35;94419.38;;;13.95;69.72
25526;BME280;13424;48.424;11.258;2023-02-24T13:31:11;94403.22;;;14.19;68.61
25526;BME280;13424;48.424;11.258;2023-02-24T13:33:43;94405.09;;;14.18;69.14
25526;BME280;13424;48.424;11.258;2023-02-24T13:36:22;94400.53;;;14.19;68.99
25526;BME280;13424;48.424;11.258;2023-02-24T13:39:07;94400.31;;;13.96;69.22
25526;BME280;13424;48.424;11.258;2023-02-24T13:41:44;94394.75;;;14.31;69.42
25526;BME280;13424;48.424;11.258;2023-02-24T13:44:28;94388.84;;;14.29;68.80
25526;BME280;13424;48.424;11.258;2023-02-24T13:50:17;94376.66;;;14.88;67.65
25526;BME280;13424;48.424;11.258;2023-02-24T13:59:00;94368.66;;;15.43;66.07
25526;BME280;13424;48.424;11.258;2023-02-24T14:01:30;94371.38;;;14.83;66.23
25526;BME280;13424;48.424;11.258;2023-02-24T14:04:29;94365.66;;;14.38;68.35
25526;BME280;13424;48.424;11.258;2023-02-24T14:07:08;94377.91;;;13.68;69.34
25526;BME280;13424;48.424;11.258;2023-02-24T14:09:38;94370.38;;;13.52;70.22
25526;BME280;13424;48.424;11.258;2023-02-24T14:12:20;94376.13;;;13.83;69.92
25526;BME280;13424;48.424;11.258;2023-02-24T14:14:48;94368.16;;;13.78;69.33
25526;BME280;13424;48.424;11.258;2023-02-24T14:17:29;94359.81;;;13.60;69.87
25526;BME280;13424;48.424;11.258;2023-02-24T14:22:57;94356.63;;;13.10;70.93
25526;BME280;13424;48.424;11.258;2023-02-24T14:25:32;94342.34;;;12.67;71.60
25526;BME280;13424;48.424;11.258;2023-02-24T14:27:59;94337.59;;;12.88;71.73
25526;BME280;13424;48.424;11.258;2023-02-24T14:30:39;94344.13;;;13.30;71.19
25526;BME280;13424;48.424;11.258;2023-02-24T14:33:07;94330.09;;;13.57;70.20
25526;BME280;13424;48.424;11.258;2023-02-24T14:35:46;94331.38;;;13.83;69.14
25526;BME280;13424;48.424;11.258;2023-02-24T14:38:38;94325.34;;;13.54;70.81
25526;BME280;13424;48.424;11.258;2023-02-24T14:41:16;94322.09;;;13.76;69.79
25526;BME280;13424;48.424;11.258;2023-02-24T14:43:45;94329.25;;;13.80;69.67
25526;BME280;13424;48.424;11.258;2023-02-24T14:46:10;94319.28;;;13.67;69.33
25526;BME280;13424;48.424;11.258;2023-02-24T14:48:36;94325.44;;;13.67;69.09
25526;BME280;13424;48.424;11.258;2023-02-24T14:54:00;94315.28;;;12.98;71.59
25526;BME280;13424;48.424;11.258;2023-02-24T14:56:31;94314.22;;;13.41;70.45
25526;BME280;13424;48.424;11.258;2023-02-24T14:59:22;94315.19;;;13.51;70.91
25526;BME280;13424;48.424;11.258;2023-02-24T15:01:51;94306.91;;;13.04;71.63
25526;BME280;13424;48.424;11.258;2023-02-24T15:04:36;94304.00;;;13.25;71.41
25526;BME280;13424;48.424;11.258;2023-02-24T15:07:11;94308.22;;;13.31;71.80
25526;BME280;13424;48.424;11.258;2023-02-24T15:09:42;94303.47;;;13.47;71.54
25526;BME280;13424;48.424;11.258;2023-02-24T15:15:18;94299.09;;;13.32;72.57
25526;BME280;13424;48.424;11.258;2023-02-24T15:17:44;94285.31;;;13.44;72.21
25526;BME280;13424;48.424;11.258;2023-02-24T15:20:34;94285.31;;;13.44;72.23
25526;BME280;13424;48.424;11.258;2023-02-24T15:23:01;94285.22;;;13.30;73.05
25526;BME280;13424;48.424;11.258;2023-02-24T15:25:41;94278.03;;;13.25;73.12
25526;BME280;13424;48.424;11.258;2023-02-24T15:28:27;94267.06;;;13.46;72.55
25526;BME280;13424;48.424;11.258;2023-02-24T15:33:25;94254.22;;;13.43;72.91